Terminal Aerodrome Forecast
Issued by NWS Wakefield, VA

Home | Current Version | Previous Version | Text Only | Print | Product List | Glossary On
Versions: 1 2 3 4 5 6 7 8 9 10 11 12 13 14
000
FTUS41 KAKQ 202300
TAFRIC
TAF
KRIC 202330Z 2100/2124 24006KT P6SM SKC
     FM210300 31010KT P6SM SKC
     FM211400 34010G15KT P6SM SKC
     FM212200 36004KT P6SM SKC=

USA.gov is the U.S. government's official web portal to all federal, state and local government web resources and services.